Time,TemperatureF,DewpointF,PressureIn,WindDirection,WindDirectionDegrees,WindSpeedMPH,WindSpeedGustMPH,Humidity,HourlyPrecipIn,Conditions,Clouds,dailyrainin,SoftwareType,DateUTC
2013-04-25 00:11:00,56.9,53.0,29.79,South,188,3.0,-999.0,87,-99.99,,,0.00,weatherlink.com 1.10,2013-04-25 04:11:00,
2013-04-25 00:26:00,56.8,53.0,29.80,South,186,5.0,-999.0,88,-99.99,,,0.00,weatherlink.com 1.10,2013-04-25 04:26:00,
2013-04-25 00:41:00,56.7,53.0,29.80,South,188,2.0,-999.0,88,-99.99,,,0.00,weatherlink.com 1.10,2013-04-25 04:41:00,
2013-04-25 00:56:00,56.7,53.0,29.80,SSW,194,5.0,-999.0,88,-99.99,,,0.00,weatherlink.com 1.10,2013-04-25 04:56:00,
2013-04-25 01:11:00,56.6,54.0,29.80,SSW,205,7.0,-999.0,89,-99.99,,,0.00,weatherlink.com 1.10,2013-04-25 05:11:00,
2013-04-25 01:26:00,56.6,54.0,29.80,SSW,205,3.0,-999.0,89,-99.99,,,0.00,weatherlink.com 1.10,2013-04-25 05:26:00,
2013-04-25 01:41:00,56.7,54.0,29.82,South,190,3.0,-999.0,89,-99.99,,,0.00,weatherlink.com 1.10,2013-04-25 05:41:00,
2013-04-25 01:56:00,57.4,54.0,29.83,SW,227,4.0,-999.0,89,-99.99,,,0.00,weatherlink.com 1.10,2013-04-25 05:56:00,
2013-04-25 02:11:00,58.5,55.0,29.84,West,271,6.0,-999.0,88,-99.99,,,0.00,weatherlink.com 1.10,2013-04-25 06:11:00,
2013-04-25 02:26:00,58.8,52.0,29.84,West,259,13.0,-999.0,78,-99.99,,,0.00,weatherlink.com 1.10,2013-04-25 06:26:00,
2013-04-25 02:41:00,59.4,44.0,29.84,West,261,17.0,-999.0,58,-99.99,,,0.00,weatherlink.com 1.10,2013-04-25 06:41:00,
2013-04-25 02:56:00,59.0,44.0,29.85,WSW,251,6.0,-999.0,58,-99.99,,,0.00,weatherlink.com 1.10,2013-04-25 06:56:00,
2013-04-25 03:11:00,57.9,43.0,29.86,West,279,15.0,-999.0,58,-99.99,,,0.00,weatherlink.com 1.10,2013-04-25 07:11:00,
2013-04-25 03:26:00,56.2,40.0,29.88,West,263,10.0,-999.0,56,-99.99,,,0.00,weatherlink.com 1.10,2013-04-25 07:26:00,
2013-04-25 03:41:00,55.0,41.0,29.89,West,259,8.0,-999.0,59,-99.99,,,0.00,weatherlink.com 1.10,2013-04-25 07:41:00,
2013-04-25 03:56:00,53.9,40.0,29.90,SW,227,6.0,-999.0,60,-99.99,,,0.00,weatherlink.com 1.10,2013-04-25 07:56:00,
2013-04-25 04:11:00,53.0,40.0,29.91,WNW,297,6.0,-999.0,61,-99.99,,,0.00,weatherlink.com 1.10,2013-04-25 08:11:00,
2013-04-25 04:26:00,52.1,39.0,29.91,WNW,292,4.0,-999.0,62,-99.99,,,0.00,weatherlink.com 1.10,2013-04-25 08:26:00,
2013-04-25 04:41:00,51.7,39.0,29.93,West,261,12.0,-999.0,63,-99.99,,,0.00,weatherlink.com 1.10,2013-04-25 08:41:00,
2013-04-25 04:56:00,51.3,39.0,29.93,West,273,8.0,-999.0,64,-99.99,,,0.00,weatherlink.com 1.10,2013-04-25 08:56:00,
2013-04-25 05:11:00,50.8,39.0,29.94,WSW,254,15.0,-999.0,65,-99.99,,,0.00,weatherlink.com 1.10,2013-04-25 09:11:00,
2013-04-25 05:26:00,50.6,40.0,29.95,WSW,254,5.0,-999.0,66,-99.99,,,0.00,weatherlink.com 1.10,2013-04-25 09:26:00,
2013-04-25 05:41:00,48.9,41.0,29.97,West,266,6.0,-999.0,74,-99.99,,,0.01,weatherlink.com 1.10,2013-04-25 09:41:00,
2013-04-25 05:56:00,47.7,41.0,29.98,WSW,244,7.0,-999.0,78,-99.99,,,0.02,weatherlink.com 1.10,2013-04-25 09:56:00,
2013-04-25 06:11:00,47.8,41.0,29.99,West,273,7.0,-999.0,76,-99.99,,,0.02,weatherlink.com 1.10,2013-04-25 10:11:00,
2013-04-25 06:26:00,48.5,38.0,30.00,WNW,298,6.0,-999.0,68,-99.99,,,0.02,weatherlink.com 1.10,2013-04-25 10:26:00,
2013-04-25 06:41:00,48.8,37.0,30.02,West,267,3.0,-999.0,64,-99.99,,,0.02,weatherlink.com 1.10,2013-04-25 10:41:00,
2013-04-25 06:56:00,48.5,36.0,30.05,West,261,7.0,-999.0,63,-99.99,,,0.02,weatherlink.com 1.10,2013-04-25 10:56:00,
2013-04-25 07:11:00,48.1,36.0,30.04,NW,304,5.0,-999.0,63,-99.99,,,0.02,weatherlink.com 1.10,2013-04-25 11:11:00,
2013-04-25 07:26:00,48.3,35.0,30.05,WSW,251,8.0,-999.0,61,-99.99,,,0.02,weatherlink.com 1.10,2013-04-25 11:26:00,
2013-04-25 07:41:00,47.9,34.0,30.07,WNW,298,9.0,-999.0,60,-99.99,,,0.02,weatherlink.com 1.10,2013-04-25 11:41:00,
2013-04-25 07:56:00,47.5,34.0,30.08,West,280,20.0,-999.0,61,-99.99,,,0.02,weatherlink.com 1.10,2013-04-25 11:56:00,
2013-04-25 08:11:00,48.1,35.0,30.09,NNE,13,3.0,-999.0,60,-99.99,,,0.02,weatherlink.com 1.10,2013-04-25 12:11:00,
2013-04-25 08:26:00,48.3,34.0,30.08,North,350,7.0,-999.0,58,-99.99,,,0.02,weatherlink.com 1.10,2013-04-25 12:26:00,
2013-04-25 08:41:00,48.6,34.0,30.09,WNW,283,12.0,-999.0,57,-99.99,,,0.02,weatherlink.com 1.10,2013-04-25 12:41:00,
2013-04-25 08:56:00,49.1,34.0,30.08,WNW,294,6.0,-999.0,56,-99.99,,,0.02,weatherlink.com 1.10,2013-04-25 12:56:00,
2013-04-25 09:11:00,49.8,34.0,30.08,WNW,287,19.0,-999.0,55,-99.99,,,0.02,weatherlink.com 1.10,2013-04-25 13:11:00,
2013-04-25 09:26:00,49.8,33.0,30.09,NNW,338,9.0,-999.0,53,-99.99,,,0.02,weatherlink.com 1.10,2013-04-25 13:26:00,
2013-04-25 09:41:00,50.5,33.0,30.09,WNW,284,11.0,-999.0,51,-99.99,,,0.02,weatherlink.com 1.10,2013-04-25 13:41:00,
2013-04-25 09:56:00,51.4,33.0,30.09,NW,325,10.0,-999.0,49,-99.99,,,0.02,weatherlink.com 1.10,2013-04-25 13:56:00,
2013-04-25 10:11:00,51.9,32.0,30.09,West,277,6.0,-999.0,46,-99.99,,,0.02,weatherlink.com 1.10,2013-04-25 14:11:00,
2013-04-25 10:26:00,52.0,31.0,30.10,NW,304,12.0,-999.0,45,-99.99,,,0.02,weatherlink.com 1.10,2013-04-25 14:26:00,
2013-04-25 10:41:00,52.5,31.0,30.10,SW,227,11.0,-999.0,44,-99.99,,,0.02,weatherlink.com 1.10,2013-04-25 14:41:00,
2013-04-25 10:56:00,53.7,33.0,30.10,WNW,296,7.0,-999.0,45,-99.99,,,0.02,weatherlink.com 1.10,2013-04-25 14:56:00,
2013-04-25 11:11:00,53.9,32.0,30.10,North,355,13.0,-999.0,43,-99.99,,,0.02,weatherlink.com 1.10,2013-04-25 15:11:00,
2013-04-25 11:26:00,55.2,33.0,30.11,WSW,241,4.0,-999.0,44,-99.99,,,0.02,weatherlink.com 1.10,2013-04-25 15:26:00,
2013-04-25 11:41:00,55.8,32.0,30.11,SW,235,7.0,-999.0,41,-99.99,,,0.02,weatherlink.com 1.10,2013-04-25 15:41:00,
2013-04-25 11:56:00,56.2,33.0,30.11,WNW,302,5.0,-999.0,42,-99.99,,,0.02,weatherlink.com 1.10,2013-04-25 15:56:00,
2013-04-25 12:11:00,56.7,32.0,30.11,NW,324,6.0,-999.0,40,-99.99,,,0.02,weatherlink.com 1.10,2013-04-25 16:11:00,
2013-04-25 12:26:00,57.8,32.0,30.10,WSW,252,7.0,-999.0,38,-99.99,,,0.02,weatherlink.com 1.10,2013-04-25 16:26:00,
2013-04-25 12:41:00,58.3,31.0,30.10,NNW,342,7.0,-999.0,36,-99.99,,,0.02,weatherlink.com 1.10,2013-04-25 16:41:00,
2013-04-25 12:56:00,58.4,31.0,30.09,NW,309,5.0,-999.0,36,-99.99,,,0.02,weatherlink.com 1.10,2013-04-25 16:56:00,
2013-04-25 13:11:00,58.6,32.0,30.09,WSW,257,6.0,-999.0,36,-99.99,,,0.02,weatherlink.com 1.10,2013-04-25 17:11:00,
2013-04-25 13:26:00,59.4,32.0,30.09,North,5,0.0,-999.0,35,-99.99,,,0.02,weatherlink.com 1.10,2013-04-25 17:26:00,
2013-04-25 13:41:00,59.8,31.0,30.08,WSW,249,7.0,-999.0,34,-99.99,,,0.02,weatherlink.com 1.10,2013-04-25 17:41:00,
2013-04-25 13:56:00,60.5,31.0,30.09,NW,309,6.0,-999.0,33,-99.99,,,0.02,weatherlink.com 1.10,2013-04-25 17:56:00,
2013-04-25 14:11:00,60.1,29.0,30.09,West,280,12.0,-999.0,31,-99.99,,,0.02,weatherlink.com 1.10,2013-04-25 18:11:00,
2013-04-25 14:26:00,60.4,29.0,30.09,WSW,238,0.0,-999.0,31,-99.99,,,0.02,weatherlink.com 1.10,2013-04-25 18:26:00,
2013-04-25 14:41:00,61.6,30.0,30.09,WSW,256,8.0,-999.0,30,-99.99,,,0.02,weatherlink.com 1.10,2013-04-25 18:41:00,
2013-04-25 14:56:00,61.7,30.0,30.08,NNW,337,5.0,-999.0,30,-99.99,,,0.02,weatherlink.com 1.10,2013-04-25 18:56:00,
2013-04-25 15:11:00,62.3,30.0,30.08,SSW,207,0.0,-999.0,30,-99.99,,,0.02,weatherlink.com 1.10,2013-04-25 19:11:00,
2013-04-25 15:26:00,62.7,30.0,30.08,NW,319,0.0,-999.0,29,-99.99,,,0.02,weatherlink.com 1.10,2013-04-25 19:26:00,
2013-04-25 15:41:00,62.6,34.0,30.08,SSE,155,4.0,-999.0,35,-99.99,,,0.02,weatherlink.com 1.10,2013-04-25 19:41:00,
2013-04-25 15:56:00,62.3,33.0,30.07,SSW,206,3.0,-999.0,33,-99.99,,,0.02,weatherlink.com 1.10,2013-04-25 19:56:00,
2013-04-25 16:11:00,62.5,31.0,30.08,SW,225,3.0,-999.0,31,-99.99,,,0.02,weatherlink.com 1.10,2013-04-25 20:11:00,
2013-04-25 16:26:00,62.2,35.0,30.08,SSE,166,5.0,-999.0,37,-99.99,,,0.02,weatherlink.com 1.10,2013-04-25 20:26:00,
2013-04-25 16:41:00,61.6,36.0,30.08,ENE,68,1.0,-999.0,39,-99.99,,,0.02,weatherlink.com 1.10,2013-04-25 20:41:00,
2013-04-25 16:56:00,61.6,36.0,30.08,SSE,151,2.0,-999.0,39,-99.99,,,0.02,weatherlink.com 1.10,2013-04-25 20:56:00,
2013-04-25 17:11:00,60.3,36.0,30.08,East,96,5.0,-999.0,41,-99.99,,,0.02,weatherlink.com 1.10,2013-04-25 21:11:00,
2013-04-25 17:26:00,58.8,35.0,30.08,East,90,2.0,-999.0,41,-99.99,,,0.02,weatherlink.com 1.10,2013-04-25 21:26:00,
2013-04-25 17:41:00,58.3,36.0,30.09,SE,145,2.0,-999.0,44,-99.99,,,0.02,weatherlink.com 1.10,2013-04-25 21:41:00,
2013-04-25 17:56:00,58.0,36.0,30.10,SSE,168,0.0,-999.0,44,-99.99,,,0.02,weatherlink.com 1.10,2013-04-25 21:56:00,
2013-04-25 18:11:00,57.4,35.0,30.10,SSE,165,2.0,-999.0,44,-99.99,,,0.02,weatherlink.com 1.10,2013-04-25 22:11:00,
2013-04-25 18:26:00,56.8,37.0,30.10,South,169,0.0,-999.0,48,-99.99,,,0.02,weatherlink.com 1.10,2013-04-25 22:26:00,
2013-04-25 18:41:00,56.6,36.0,30.10,South,170,0.0,-999.0,46,-99.99,,,0.02,weatherlink.com 1.10,2013-04-25 22:41:00,
2013-04-25 18:56:00,56.1,37.0,30.11,SSE,153,1.0,-999.0,49,-99.99,,,0.02,weatherlink.com 1.10,2013-04-25 22:56:00,
2013-04-25 19:11:00,55.5,38.0,30.10,SSE,159,1.0,-999.0,52,-99.99,,,0.02,weatherlink.com 1.10,2013-04-25 23:11:00,
2013-04-25 19:26:00,54.6,39.0,30.11,SSE,159,0.0,-999.0,56,-99.99,,,0.02,weatherlink.com 1.10,2013-04-25 23:26:00,
2013-04-25 19:41:00,53.8,40.0,30.11,SSE,159,0.0,-999.0,59,-99.99,,,0.02,weatherlink.com 1.10,2013-04-25 23:41:00,
2013-04-25 19:56:00,53.1,40.0,30.12,SSE,159,0.0,-999.0,62,-99.99,,,0.02,weatherlink.com 1.10,2013-04-25 23:56:00,
2013-04-25 20:11:00,52.5,40.0,30.12,SSE,159,0.0,-999.0,63,-99.99,,,0.02,weatherlink.com 1.10,2013-04-26 00:11:00,
2013-04-25 20:26:00,52.1,40.0,30.13,South,170,0.0,-999.0,63,-99.99,,,0.02,weatherlink.com 1.10,2013-04-26 00:26:00,
2013-04-25 20:41:00,51.9,39.0,30.14,SSE,163,0.0,-999.0,62,-99.99,,,0.02,weatherlink.com 1.10,2013-04-26 00:41:00,
2013-04-25 20:56:00,51.9,38.0,30.14,South,186,0.0,-999.0,59,-99.99,,,0.02,weatherlink.com 1.10,2013-04-26 00:56:00,
2013-04-25 21:11:00,51.6,38.0,30.15,South,186,0.0,-999.0,60,-99.99,,,0.02,weatherlink.com 1.10,2013-04-26 01:11:00,
2013-04-25 21:26:00,51.1,38.0,30.16,South,186,0.0,-999.0,61,-99.99,,,0.02,weatherlink.com 1.10,2013-04-26 01:26:00,
2013-04-25 21:41:00,50.7,38.0,30.16,South,186,0.0,-999.0,63,-99.99,,,0.02,weatherlink.com 1.10,2013-04-26 01:41:00,
2013-04-25 21:56:00,50.4,39.0,30.16,South,182,0.0,-999.0,65,-99.99,,,0.02,weatherlink.com 1.10,2013-04-26 01:56:00,
2013-04-25 22:11:00,50.3,39.0,30.17,South,182,0.0,-999.0,65,-99.99,,,0.02,weatherlink.com 1.10,2013-04-26 02:11:00,
2013-04-25 22:26:00,50.2,39.0,30.17,South,182,2.0,-999.0,65,-99.99,,,0.02,weatherlink.com 1.10,2013-04-26 02:26:00,
2013-04-25 22:41:00,49.9,39.0,30.17,South,182,1.0,-999.0,66,-99.99,,,0.02,weatherlink.com 1.10,2013-04-26 02:41:00,
2013-04-25 22:56:00,49.4,39.0,30.17,South,185,1.0,-999.0,68,-99.99,,,0.02,weatherlink.com 1.10,2013-04-26 02:56:00,
2013-04-25 23:11:00,49.0,40.0,30.18,South,185,2.0,-999.0,70,-99.99,,,0.02,weatherlink.com 1.10,2013-04-26 03:11:00,
2013-04-25 23:26:00,48.6,40.0,30.18,South,185,1.0,-999.0,71,-99.99,,,0.02,weatherlink.com 1.10,2013-04-26 03:26:00,
2013-04-25 23:41:00,48.0,39.0,30.18,South,185,1.0,-999.0,72,-99.99,,,0.02,weatherlink.com 1.10,2013-04-26 03:41:00,
2013-04-25 23:56:00,47.4,40.0,30.18,South,185,0.0,-999.0,74,-99.99,,,0.02,weatherlink.com 1.10,2013-04-26 03:56:00,